createdAt,value
2023-03-30T00:01:12.170Z,23.00
2023-03-30T00:03:43.139Z,23.00
2023-03-30T00:06:14.299Z,22.63
2023-03-30T00:08:42.736Z,22.80
2023-03-30T00:11:13.772Z,22.97
2023-03-30T00:13:43.736Z,22.73
2023-03-30T00:16:15.036Z,22.90
2023-03-30T00:18:45.674Z,23.33
2023-03-30T00:21:18.422Z,22.90
2023-03-30T00:23:47.890Z,21.10
2023-03-30T00:26:16.945Z,21.30
2023-03-30T00:28:45.243Z,21.13
2023-03-30T00:31:13.496Z,20.17
2023-03-30T00:33:45.500Z,19.70
2023-03-30T00:36:16.991Z,19.83
2023-03-30T00:38:45.700Z,20.10
2023-03-30T00:41:14.027Z,19.30
2023-03-30T00:44:04.099Z,19.80
2023-03-30T00:46:33.169Z,19.20
2023-03-30T00:49:05.625Z,20.50
2023-03-30T00:51:38.356Z,19.77
2023-03-30T00:54:11.078Z,19.07
2023-03-30T00:56:39.698Z,19.60
2023-03-30T00:59:09.127Z,18.93
2023-03-30T01:01:39.351Z,19.20
2023-03-30T01:04:09.789Z,20.20
2023-03-30T01:06:43.470Z,19.60
2023-03-30T01:09:12.076Z,19.07
2023-03-30T01:11:40.421Z,18.77
2023-03-30T01:14:12.173Z,19.23
2023-03-30T01:16:46.680Z,19.03
2023-03-30T01:19:40.314Z,19.07
2023-03-30T01:22:36.901Z,19.20
2023-03-30T01:25:40.498Z,19.70
2023-03-30T01:28:30.990Z,19.13
2023-03-30T01:31:25.976Z,19.00
2023-03-30T01:34:23.076Z,20.33
2023-03-30T01:37:46.590Z,18.83
2023-03-30T01:40:17.699Z,18.93
2023-03-30T01:42:56.484Z,19.03
2023-03-30T01:45:32.999Z,18.87
2023-03-30T01:48:09.638Z,18.97
2023-03-30T01:50:43.051Z,19.37
2023-03-30T01:53:16.922Z,19.50
2023-03-30T01:55:49.558Z,19.30
2023-03-30T01:58:25.212Z,19.10
2023-03-30T02:00:55.528Z,18.67
2023-03-30T02:03:29.220Z,18.60
2023-03-30T02:06:03.979Z,18.77
2023-03-30T02:08:34.951Z,18.57
2023-03-30T02:11:05.147Z,18.50
2023-03-30T02:13:35.144Z,18.90
2023-03-30T02:16:07.886Z,18.37
2023-03-30T02:18:38.238Z,18.07
2023-03-30T02:21:06.976Z,18.07
2023-03-30T02:23:39.485Z,18.30
2023-03-30T02:26:09.759Z,22.00
2023-03-30T02:28:37.893Z,18.47
2023-03-30T02:31:10.806Z,19.43
2023-03-30T02:33:47.209Z,18.03
2023-03-30T02:36:30.166Z,18.30
2023-03-30T02:39:17.972Z,19.10
2023-03-30T02:42:26.608Z,19.30
2023-03-30T02:45:05.729Z,19.43
2023-03-30T02:47:42.446Z,19.00
2023-03-30T02:50:18.894Z,19.37
2023-03-30T02:52:56.500Z,19.87
2023-03-30T02:55:34.658Z,21.03
2023-03-30T02:58:09.299Z,20.23
2023-03-30T03:00:43.173Z,20.17
2023-03-30T03:03:17.295Z,20.10
2023-03-30T03:05:46.152Z,20.60
2023-03-30T03:08:19.545Z,20.70
2023-03-30T03:10:47.774Z,20.10
2023-03-30T03:13:19.009Z,19.60
2023-03-30T03:15:49.621Z,20.07
2023-03-30T03:18:18.654Z,20.10
2023-03-30T03:20:46.995Z,19.57
2023-03-30T03:23:15.171Z,20.13
2023-03-30T03:25:43.552Z,20.87
2023-03-30T03:28:11.662Z,21.43
2023-03-30T03:30:41.616Z,22.10
2023-03-30T03:33:09.809Z,22.50
2023-03-30T03:35:39.346Z,24.50
2023-03-30T03:38:07.887Z,24.60
2023-03-30T03:40:36.046Z,26.00
2023-03-30T03:43:04.343Z,25.83
2023-03-30T03:45:32.520Z,27.87
2023-03-30T03:48:02.174Z,26.97
2023-03-30T03:50:30.438Z,27.33
2023-03-30T03:52:58.840Z,25.80
2023-03-30T03:55:28.611Z,25.00
2023-03-30T03:57:56.783Z,26.57
2023-03-30T04:00:26.758Z,25.43
2023-03-30T04:02:55.034Z,25.93
2023-03-30T04:05:24.698Z,26.20
2023-03-30T04:07:53.553Z,25.37
2023-03-30T04:10:22.079Z,27.70
2023-03-30T04:12:50.496Z,25.13
2023-03-30T04:15:18.704Z,24.83
2023-03-30T04:17:49.964Z,26.10
2023-03-30T04:20:19.510Z,26.23
2023-03-30T04:22:50.142Z,27.30
2023-03-30T04:25:19.630Z,26.57
2023-03-30T04:27:50.476Z,27.33
2023-03-30T04:30:19.784Z,27.33
2023-03-30T04:32:54.789Z,28.13
2023-03-30T04:35:23.072Z,30.30
2023-03-30T04:37:52.605Z,34.13
2023-03-30T04:40:20.903Z,38.00
2023-03-30T04:42:50.176Z,39.13
2023-03-30T04:45:19.193Z,38.17
2023-03-30T04:47:47.599Z,37.07
2023-03-30T04:50:16.570Z,38.57
2023-03-30T04:52:44.886Z,40.13
2023-03-30T04:55:14.465Z,39.07
2023-03-30T04:57:42.673Z,38.40
2023-03-30T05:00:12.252Z,38.10
2023-03-30T05:02:40.556Z,40.73
2023-03-30T05:05:09.379Z,41.20
2023-03-30T05:07:37.499Z,41.73
2023-03-30T05:10:06.240Z,44.27
2023-03-30T05:12:35.861Z,45.93
2023-03-30T05:15:04.102Z,45.23
2023-03-30T05:17:34.929Z,46.60
2023-03-30T05:20:08.539Z,46.67
2023-03-30T05:22:37.458Z,47.40
2023-03-30T05:25:07.259Z,47.67
2023-03-30T05:27:37.175Z,47.67
2023-03-30T05:30:06.395Z,47.13
2023-03-30T05:32:34.773Z,47.60
2023-03-30T05:35:02.934Z,44.87
2023-03-30T05:37:31.338Z,43.30
2023-03-30T05:39:59.459Z,46.23
2023-03-30T05:42:33.307Z,46.33
2023-03-30T05:45:02.829Z,51.30
2023-03-30T05:47:30.986Z,49.67
2023-03-30T05:49:59.104Z,48.17
2023-03-30T05:52:27.116Z,48.70
2023-03-30T05:54:55.278Z,49.03
2023-03-30T05:57:23.506Z,53.00
2023-03-30T05:59:51.739Z,49.57
2023-03-30T06:02:22.497Z,51.00
2023-03-30T06:04:50.855Z,50.67
2023-03-30T06:07:20.789Z,51.10
2023-03-30T06:09:49.138Z,52.63
2023-03-30T06:12:17.368Z,50.30
2023-03-30T06:14:45.725Z,54.50
2023-03-30T06:17:16.109Z,52.30
2023-03-30T06:19:45.663Z,48.57
2023-03-30T06:22:13.797Z,49.57
2023-03-30T06:24:42.048Z,45.87
2023-03-30T06:27:10.252Z,42.67
2023-03-30T06:29:39.449Z,42.33
2023-03-30T06:32:08.192Z,43.63
2023-03-30T06:34:36.643Z,40.47
2023-03-30T06:37:08.799Z,40.40
2023-03-30T06:39:37.925Z,42.70
2023-03-30T06:42:06.814Z,41.03
2023-03-30T06:44:35.330Z,43.77
2023-03-30T06:47:05.493Z,44.13
2023-03-30T06:49:34.182Z,45.50
2023-03-30T06:52:05.034Z,45.20
2023-03-30T06:54:36.667Z,48.33
2023-03-30T06:57:05.076Z,45.80
2023-03-30T06:59:34.594Z,40.23
2023-03-30T07:02:03.611Z,40.47
2023-03-30T07:04:31.977Z,41.80
2023-03-30T07:07:00.401Z,38.97
2023-03-30T07:09:29.090Z,37.27
2023-03-30T07:11:58.708Z,33.60
2023-03-30T07:14:27.111Z,32.90
2023-03-30T07:16:55.234Z,27.37
2023-03-30T07:19:23.389Z,29.00
2023-03-30T07:21:51.604Z,27.40
2023-03-30T07:24:19.776Z,27.00
2023-03-30T07:26:48.086Z,27.03
2023-03-30T07:29:17.692Z,25.37
2023-03-30T07:31:46.212Z,24.60
2023-03-30T07:34:14.621Z,25.40
2023-03-30T07:36:42.764Z,24.33
2023-03-30T07:39:11.269Z,25.03
2023-03-30T07:41:39.463Z,23.93
2023-03-30T07:44:07.668Z,23.80
2023-03-30T07:46:37.285Z,24.03
2023-03-30T07:49:06.086Z,23.03
2023-03-30T07:51:34.617Z,21.87
2023-03-30T07:54:03.034Z,21.60
2023-03-30T07:56:31.261Z,21.63
2023-03-30T07:59:01.593Z,22.03
2023-03-30T08:01:31.533Z,21.07
2023-03-30T08:04:01.726Z,20.83
2023-03-30T08:06:30.374Z,20.40
2023-03-30T08:08:58.794Z,20.63
2023-03-30T08:11:27.059Z,21.00
2023-03-30T08:13:55.225Z,20.00
2023-03-30T08:16:23.462Z,19.63
2023-03-30T08:18:54.744Z,20.10
2023-03-30T08:21:26.103Z,20.67
2023-03-30T08:23:56.116Z,21.23
2023-03-30T08:26:24.338Z,21.93
2023-03-30T08:28:52.768Z,20.20
2023-03-30T08:31:22.142Z,20.50
2023-03-30T08:33:50.716Z,20.77
2023-03-30T08:36:20.324Z,20.83
2023-03-30T08:38:49.907Z,20.90
2023-03-30T08:41:38.965Z,21.13
2023-03-30T08:44:12.382Z,20.90
2023-03-30T08:46:42.344Z,20.50
2023-03-30T08:49:16.279Z,19.70
2023-03-30T08:51:44.607Z,20.60
2023-03-30T08:54:17.514Z,20.83
2023-03-30T08:56:54.148Z,20.80
2023-03-30T08:59:29.066Z,20.10
2023-03-30T09:02:01.167Z,20.60
2023-03-30T09:04:43.250Z,21.50
2023-03-30T09:07:18.217Z,20.27
2023-03-30T09:09:51.000Z,21.00
2023-03-30T09:12:28.489Z,20.20
2023-03-30T09:15:00.809Z,20.20
2023-03-30T09:17:32.850Z,19.93
2023-03-30T09:20:09.306Z,21.97
2023-03-30T09:22:41.825Z,19.20
2023-03-30T09:25:21.545Z,19.30
2023-03-30T09:27:59.990Z,18.93
2023-03-30T09:30:41.704Z,20.23
2023-03-30T09:33:22.091Z,20.90
2023-03-30T09:36:03.704Z,19.93
2023-03-30T09:38:33.050Z,19.00
2023-03-30T09:41:31.117Z,19.17
2023-03-30T09:44:01.002Z,19.17
2023-03-30T09:46:29.487Z,19.00
2023-03-30T09:49:13.835Z,18.60
2023-03-30T09:51:56.247Z,19.50
2023-03-30T09:54:24.893Z,19.33
2023-03-30T09:56:57.130Z,19.80
2023-03-30T09:59:31.307Z,18.00
2023-03-30T10:02:19.142Z,18.47
2023-03-30T10:05:02.318Z,18.47
2023-03-30T10:07:34.399Z,18.17
2023-03-30T10:10:14.090Z,19.23
2023-03-30T10:12:43.838Z,18.83
2023-03-30T10:15:18.871Z,18.60
2023-03-30T10:17:51.250Z,18.60
2023-03-30T10:20:34.266Z,18.17
2023-03-30T10:23:05.695Z,18.30
2023-03-30T10:25:34.976Z,18.17
2023-03-30T10:28:07.089Z,18.57
2023-03-30T10:30:35.809Z,18.37
2023-03-30T10:33:04.138Z,19.23
2023-03-30T10:35:37.051Z,20.20
2023-03-30T10:38:07.573Z,18.20
2023-03-30T10:40:38.043Z,19.53
2023-03-30T10:43:14.015Z,18.30
2023-03-30T10:45:46.361Z,18.47
2023-03-30T10:48:37.563Z,18.00
2023-03-30T10:51:14.842Z,17.80
2023-03-30T10:53:51.979Z,19.07
2023-03-30T10:56:31.113Z,18.40
2023-03-30T10:59:30.158Z,17.30
2023-03-30T11:02:20.680Z,17.47
2023-03-30T11:04:54.037Z,17.07
2023-03-30T11:07:30.863Z,16.90
2023-03-30T11:10:20.604Z,17.47
2023-03-30T11:12:54.975Z,17.83
2023-03-30T11:15:29.712Z,17.60
2023-03-30T11:18:04.573Z,17.30
2023-03-30T11:20:36.594Z,17.33
2023-03-30T11:23:11.648Z,17.63
2023-03-30T11:25:49.488Z,17.90
2023-03-30T11:28:26.046Z,18.30
2023-03-30T11:31:01.361Z,18.53
2023-03-30T11:33:36.182Z,18.00
2023-03-30T11:36:17.610Z,18.37
2023-03-30T11:38:49.641Z,17.60
2023-03-30T11:41:23.466Z,17.60
2023-03-30T11:43:56.035Z,17.30
2023-03-30T11:46:30.457Z,17.13
2023-03-30T11:51:57.628Z,17.07
2023-03-30T11:55:10.407Z,18.50
2023-03-30T11:57:45.801Z,18.43
2023-03-30T12:00:47.498Z,17.13
2023-03-30T12:03:30.668Z,17.27
2023-03-30T12:06:14.646Z,18.00
2023-03-30T12:09:10.792Z,17.43
2023-03-30T12:11:42.867Z,17.73
2023-03-30T12:14:31.637Z,17.93
2023-03-30T12:17:05.330Z,17.80
2023-03-30T12:19:55.106Z,18.90
2023-03-30T12:22:31.315Z,19.17
2023-03-30T12:25:07.393Z,18.40
2023-03-30T12:27:53.965Z,19.40
2023-03-30T12:30:27.500Z,18.27
2023-03-30T12:33:01.583Z,17.70
2023-03-30T12:35:56.711Z,17.90
2023-03-30T12:38:27.255Z,17.70
2023-03-30T12:41:18.336Z,18.93
2023-03-30T12:44:19.754Z,17.60
2023-03-30T12:47:00.156Z,17.77
2023-03-30T12:49:41.417Z,17.83
2023-03-30T12:52:16.144Z,18.10
2023-03-30T12:54:58.762Z,17.13
2023-03-30T12:57:39.280Z,16.87
2023-03-30T13:00:58.866Z,18.20
2023-03-30T13:03:40.545Z,18.00
2023-03-30T13:06:15.651Z,19.57
2023-03-30T13:08:45.420Z,17.77
2023-03-30T13:11:16.549Z,17.70
2023-03-30T13:13:52.032Z,17.77
2023-03-30T13:17:02.873Z,17.60
2023-03-30T13:19:43.610Z,18.00
2023-03-30T13:22:26.008Z,18.60
2023-03-30T13:24:59.197Z,18.77
2023-03-30T13:27:33.935Z,18.87
2023-03-30T13:30:04.107Z,18.40
2023-03-30T13:32:40.402Z,18.50
2023-03-30T13:35:34.532Z,18.53
2023-03-30T13:38:15.029Z,20.03
2023-03-30T13:41:03.917Z,18.17
2023-03-30T13:43:43.694Z,19.07
2023-03-30T13:46:18.526Z,19.00
2023-03-30T13:49:06.555Z,18.40
2023-03-30T13:51:35.428Z,18.00
2023-03-30T13:54:08.415Z,17.57
2023-03-30T13:56:42.650Z,17.97
2023-03-30T13:59:15.192Z,18.00
2023-03-30T14:01:49.992Z,18.10
2023-03-30T14:04:18.217Z,17.73
2023-03-30T14:06:49.381Z,18.13
2023-03-30T14:09:22.702Z,18.20
2023-03-30T14:11:54.276Z,17.87
2023-03-30T14:14:27.871Z,18.40
2023-03-30T14:16:57.211Z,17.77
2023-03-30T14:19:28.207Z,17.90
2023-03-30T14:21:58.924Z,17.57
2023-03-30T14:24:31.324Z,17.77
2023-03-30T14:27:06.706Z,17.57
2023-03-30T14:29:34.942Z,17.43
2023-03-30T14:32:08.936Z,17.67
2023-03-30T14:34:38.121Z,17.63
2023-03-30T14:37:08.284Z,17.90
2023-03-30T14:39:41.975Z,17.60
2023-03-30T14:42:18.780Z,17.60
2023-03-30T14:44:49.206Z,18.00
2023-03-30T14:47:20.988Z,19.83
2023-03-30T14:49:50.085Z,17.47
2023-03-30T14:52:20.524Z,17.90
2023-03-30T14:55:05.289Z,17.50
2023-03-30T14:57:40.368Z,17.27
2023-03-30T15:00:18.195Z,17.70
2023-03-30T15:02:47.519Z,17.87
2023-03-30T15:05:18.407Z,17.03
2023-03-30T15:07:50.166Z,17.00
2023-03-30T15:10:27.001Z,16.80
2023-03-30T15:12:58.785Z,16.83
2023-03-30T15:15:29.927Z,17.47
2023-03-30T15:17:58.690Z,16.90
2023-03-30T15:20:28.962Z,16.87
2023-03-30T15:22:57.807Z,16.60
2023-03-30T15:25:33.666Z,18.20
2023-03-30T15:28:07.004Z,16.60
2023-03-30T15:30:37.603Z,17.90
2023-03-30T15:33:07.496Z,17.07
2023-03-30T15:35:38.306Z,17.07
2023-03-30T15:38:15.568Z,17.20
2023-03-30T15:40:46.117Z,18.27
2023-03-30T15:43:23.110Z,17.13
2023-03-30T15:45:53.838Z,17.67
2023-03-30T15:48:25.784Z,18.10
2023-03-30T15:51:01.362Z,17.43
2023-03-30T15:53:36.411Z,18.57
2023-03-30T15:56:06.434Z,17.43
2023-03-30T15:58:36.310Z,17.40
2023-03-30T16:01:06.026Z,17.70
2023-03-30T16:03:38.712Z,18.40
2023-03-30T16:06:07.778Z,17.50
2023-03-30T16:08:35.907Z,17.93
2023-03-30T16:11:04.609Z,17.90
2023-03-30T16:13:32.865Z,17.97
2023-03-30T16:16:03.677Z,18.20
2023-03-30T16:18:31.761Z,17.50
2023-03-30T16:21:00.815Z,16.53
2023-03-30T16:23:28.937Z,18.07
2023-03-30T16:25:58.289Z,17.30
2023-03-30T16:28:26.500Z,17.40
2023-03-30T16:30:58.774Z,17.40
2023-03-30T16:33:28.352Z,17.80
2023-03-30T16:35:56.647Z,17.60
2023-03-30T16:38:24.698Z,17.60
2023-03-30T16:40:55.711Z,17.37
2023-03-30T16:43:24.325Z,18.40
2023-03-30T16:45:52.503Z,18.13
2023-03-30T16:48:21.857Z,18.77
2023-03-30T16:50:53.603Z,17.53
2023-03-30T16:53:21.662Z,18.90
2023-03-30T16:55:50.028Z,18.27
2023-03-30T16:58:18.152Z,17.87
2023-03-30T17:00:48.716Z,17.70
2023-03-30T17:03:18.447Z,18.30
2023-03-30T17:05:48.407Z,17.77
2023-03-30T17:08:22.008Z,17.70
2023-03-30T17:10:50.636Z,17.63
2023-03-30T17:13:18.808Z,17.97
2023-03-30T17:15:47.150Z,18.20
2023-03-30T17:18:17.044Z,18.33
2023-03-30T17:20:48.239Z,18.20
2023-03-30T17:23:17.807Z,18.40
2023-03-30T17:25:48.957Z,18.07
2023-03-30T17:28:22.347Z,18.20
2023-03-30T17:30:51.977Z,18.03
2023-03-30T17:33:20.828Z,17.70
2023-03-30T17:35:52.919Z,17.80
2023-03-30T17:38:23.019Z,17.93
2023-03-30T17:40:51.174Z,18.10
2023-03-30T17:43:19.346Z,18.30
2023-03-30T17:45:47.869Z,17.60
2023-03-30T17:48:17.833Z,17.23
2023-03-30T17:50:47.933Z,17.90
2023-03-30T17:53:17.734Z,17.27
2023-03-30T17:55:48.346Z,17.30
2023-03-30T17:58:20.155Z,17.07
2023-03-30T18:00:49.372Z,18.73
2023-03-30T18:03:19.302Z,17.97
2023-03-30T18:05:48.048Z,18.30
2023-03-30T18:08:18.267Z,19.00
2023-03-30T18:10:48.843Z,19.67
2023-03-30T18:13:17.483Z,19.23
2023-03-30T18:15:49.246Z,19.47
2023-03-30T18:18:22.695Z,19.67
2023-03-30T18:20:52.240Z,22.73
2023-03-30T18:23:20.584Z,20.20
2023-03-30T18:25:50.496Z,19.90
2023-03-30T18:28:20.379Z,20.87
2023-03-30T18:30:49.179Z,21.60
2023-03-30T18:33:17.505Z,20.90
2023-03-30T18:35:47.467Z,22.38
2023-03-30T18:38:17.886Z,21.97
2023-03-30T18:40:49.238Z,22.60
2023-03-30T18:43:18.862Z,21.80
2023-03-30T18:45:49.493Z,21.17
2023-03-30T18:48:19.425Z,21.60
2023-03-30T18:50:49.246Z,21.47
2023-03-30T18:53:18.623Z,21.63
2023-03-30T18:55:48.374Z,22.30
2023-03-30T18:58:20.182Z,21.80
2023-03-30T19:00:49.595Z,21.20
2023-03-30T19:03:18.453Z,21.07
2023-03-30T19:05:47.390Z,21.67
2023-03-30T19:08:17.268Z,21.73
2023-03-30T19:10:49.643Z,23.13
2023-03-30T19:13:20.548Z,22.97
2023-03-30T19:15:49.820Z,23.00
2023-03-30T19:18:18.606Z,22.70
2023-03-30T19:20:49.339Z,22.13
2023-03-30T19:23:18.322Z,22.83
2023-03-30T19:25:46.811Z,22.97
2023-03-30T19:28:15.698Z,23.07
2023-03-30T19:30:45.771Z,23.10
2023-03-30T19:33:16.867Z,23.83
2023-03-30T19:35:46.737Z,24.10
2023-03-30T19:38:15.382Z,24.50
2023-03-30T19:40:44.113Z,23.60
2023-03-30T19:43:12.671Z,23.80
2023-03-30T19:45:41.050Z,23.47
2023-03-30T19:48:10.811Z,23.27
2023-03-30T19:50:40.673Z,24.83
2023-03-30T19:53:09.154Z,25.60
2023-03-30T19:55:37.899Z,24.30
2023-03-30T19:58:06.036Z,22.83
2023-03-30T20:00:34.921Z,23.47
2023-03-30T20:03:03.574Z,23.23
2023-03-30T20:05:33.439Z,23.00
2023-03-30T20:08:10.422Z,22.80
2023-03-30T20:10:49.089Z,22.30
2023-03-30T20:13:21.791Z,22.53
2023-03-30T20:15:50.027Z,22.23
2023-03-30T20:18:18.434Z,21.73
2023-03-30T20:20:47.902Z,22.70
2023-03-30T20:23:16.035Z,23.77
2023-03-30T20:25:46.478Z,23.23
2023-03-30T20:28:14.606Z,24.10
2023-03-30T20:30:42.773Z,23.93
2023-03-30T20:33:11.099Z,24.00
2023-03-30T20:35:39.678Z,24.17
2023-03-30T20:38:09.185Z,23.90
2023-03-30T20:40:37.274Z,24.00
2023-03-30T20:43:10.005Z,24.00
2023-03-30T20:45:45.999Z,25.80
2023-03-30T20:48:25.967Z,25.50
2023-03-30T20:50:55.364Z,25.57
2023-03-30T20:53:25.260Z,24.70
2023-03-30T20:55:53.382Z,24.20
2023-03-30T20:58:23.241Z,25.23
2023-03-30T21:00:53.027Z,25.33
2023-03-30T21:03:21.643Z,24.47
2023-03-30T21:06:01.733Z,24.00
2023-03-30T21:08:32.441Z,23.57
2023-03-30T21:11:00.881Z,23.77
2023-03-30T21:13:29.126Z,24.23
2023-03-30T21:15:58.339Z,24.83
2023-03-30T21:18:26.731Z,24.70
2023-03-30T21:20:55.333Z,25.33
2023-03-30T21:23:25.344Z,25.80
2023-03-30T21:25:57.666Z,27.77
2023-03-30T21:28:28.535Z,26.80
2023-03-30T21:30:57.561Z,27.03
2023-03-30T21:33:26.848Z,26.77
2023-03-30T21:35:57.103Z,28.97
2023-03-30T21:38:26.298Z,29.07
2023-03-30T21:41:04.742Z,30.17
2023-03-30T21:43:35.210Z,29.83
2023-03-30T21:46:05.415Z,31.17
2023-03-30T21:48:36.108Z,29.80
2023-03-30T21:51:06.693Z,30.40
2023-03-30T21:53:36.463Z,29.87
2023-03-30T21:56:07.376Z,30.87
2023-03-30T21:58:36.008Z,30.90
2023-03-30T22:01:11.692Z,31.93
2023-03-30T22:03:41.981Z,31.80
2023-03-30T22:06:12.575Z,32.77
2023-03-30T22:08:41.369Z,32.90
2023-03-30T22:11:14.608Z,33.70
2023-03-30T22:13:42.742Z,36.90
2023-03-30T22:16:13.845Z,33.03
2023-03-30T22:18:42.638Z,33.97
2023-03-30T22:21:14.610Z,35.33
2023-03-30T22:23:42.785Z,35.50
2023-03-30T22:26:12.631Z,36.27
2023-03-30T22:28:41.126Z,35.73
2023-03-30T22:31:09.960Z,36.00
2023-03-30T22:33:38.418Z,35.90
2023-03-30T22:36:08.107Z,36.47
2023-03-30T22:38:36.535Z,36.97
2023-03-30T22:41:07.685Z,38.37
2023-03-30T22:43:37.196Z,38.70
2023-03-30T22:46:06.713Z,39.57
2023-03-30T22:48:35.607Z,38.97
2023-03-30T22:51:04.382Z,40.43
2023-03-30T22:53:33.359Z,42.43
2023-03-30T22:56:02.026Z,42.50
2023-03-30T22:58:30.122Z,42.77
2023-03-30T23:01:03.336Z,44.27
2023-03-30T23:03:31.511Z,45.30
2023-03-30T23:06:01.147Z,46.93
2023-03-30T23:08:30.564Z,48.20
2023-03-30T23:11:04.473Z,49.63
2023-03-30T23:13:33.260Z,50.83
2023-03-30T23:16:02.873Z,54.23
2023-03-30T23:18:34.308Z,57.67
2023-03-30T23:21:07.000Z,63.03
2023-03-30T23:23:36.246Z,69.03
2023-03-30T23:26:09.109Z,72.37
2023-03-30T23:28:39.300Z,74.50
2023-03-30T23:31:10.700Z,73.97
2023-03-30T23:33:38.991Z,78.93
2023-03-30T23:36:08.271Z,78.23
2023-03-30T23:38:37.454Z,79.03
2023-03-30T23:41:06.862Z,80.30
2023-03-30T23:43:34.951Z,80.47
2023-03-30T23:46:03.210Z,81.10
2023-03-30T23:48:32.969Z,81.67
2023-03-30T23:51:00.879Z,81.50
2023-03-30T23:53:29.042Z,82.80
2023-03-30T23:55:58.230Z,82.67
2023-03-30T23:58:26.411Z,81.67
